Time;durP1;ratioP1;P1;durP2;ratioP2;P2;SDS_P1;SDS_P2;PMS_P1;PMS_P2;Temp;Humidity;BMP_temperature;BMP_pressure;BME280_temperature;BME280_humidity;BME280_pressure;Samples;Min_cycle;Max_cycle;Signal;HPM_P1;HPM_P2
2022/11/29 00:01:01;;;;;;;4.13;3.65;;;;;;;;;;5032828;28;20296;-83
2022/11/29 00:03:28;;;;;;;3.42;3.13;;;;;;;;;;5035255;28;20691;-85
2022/11/29 00:05:56;;;;;;;2.83;2.63;;;;;;;;;;5036338;28;20252;-84
2022/11/29 00:08:25;;;;;;;2.90;2.70;;;;;;;;;;5036230;28;20351;-82
2022/11/29 00:10:52;;;;;;;2.80;2.47;;;;;;;;;;5036281;28;20539;-82
2022/11/29 00:13:20;;;;;;;3.40;3.10;;;;;;;;;;5036621;28;20288;-84
2022/11/29 00:15:48;;;;;;;3.28;2.97;;;;;;;;;;5036283;28;20297;-83
2022/11/29 00:18:16;;;;;;;3.00;2.70;;;;;;;;;;5036134;28;20305;-84
2022/11/29 00:20:43;;;;;;;3.40;3.13;;;;;;;;;;5036470;28;20289;-84
2022/11/29 00:23:11;;;;;;;3.40;3.10;;;;;;;;;;5036354;28;20245;-85
2022/11/29 00:25:39;;;;;;;3.30;3.00;;;;;;;;;;5035777;28;20678;-83
2022/11/29 00:28:06;;;;;;;3.00;2.80;;;;;;;;;;5035901;28;20305;-85
2022/11/29 00:30:34;;;;;;;2.88;2.67;;;;;;;;;;5035938;28;20302;-86
2022/11/29 00:33:03;;;;;;;3.30;3.03;;;;;;;;;;5035372;28;20709;-84
2022/11/29 00:35:31;;;;;;;3.53;3.22;;;;;;;;;;5035826;28;20229;-85
2022/11/29 00:37:59;;;;;;;3.03;2.83;;;;;;;;;;5035965;28;20250;-82
2022/11/29 00:40:26;;;;;;;3.40;3.10;;;;;;;;;;5035661;28;20244;-86
2022/11/29 00:42:54;;;;;;;3.30;3.00;;;;;;;;;;5035378;28;20737;-85
2022/11/29 00:45:21;;;;;;;2.92;2.70;;;;;;;;;;5037450;28;20271;-81
2022/11/29 00:47:48;;;;;;;3.22;3.00;;;;;;;;;;5037927;28;20257;-85
2022/11/29 00:50:17;;;;;;;2.70;2.50;;;;;;;;;;5038353;28;20289;-84
2022/11/29 00:52:45;;;;;;;3.45;3.15;;;;;;;;;;5038832;28;20284;-84
2022/11/29 00:55:12;;;;;;;3.00;2.80;;;;;;;;;;5036055;28;20230;-85
2022/11/29 00:57:40;;;;;;;3.38;3.03;;;;;;;;;;5035234;28;20311;-85
2022/11/29 01:00:09;;;;;;;2.40;2.30;;;;;;;;;;5035789;28;20782;-85
2022/11/29 01:02:36;;;;;;;2.88;2.67;;;;;;;;;;5035479;28;20742;-84
2022/11/29 01:05:04;;;;;;;2.53;2.33;;;;;;;;;;5034898;28;20253;-83
2022/11/29 01:07:33;;;;;;;2.75;2.55;;;;;;;;;;5035511;28;20329;-84
2022/11/29 01:10:01;;;;;;;2.85;2.65;;;;;;;;;;5034954;28;20289;-84
2022/11/29 01:12:28;;;;;;;2.45;2.25;;;;;;;;;;5035094;28;20202;-84
2022/11/29 01:14:57;;;;;;;3.10;2.90;;;;;;;;;;5034828;28;20289;-85
2022/11/29 01:17:25;;;;;;;3.25;2.95;;;;;;;;;;5035325;28;20316;-86
2022/11/29 01:19:52;;;;;;;2.67;2.47;;;;;;;;;;5034981;28;20236;-86
2022/11/29 01:22:20;;;;;;;3.25;2.95;;;;;;;;;;5034819;28;20234;-85
2022/11/29 01:24:49;;;;;;;2.72;2.53;;;;;;;;;;5035122;28;20317;-86
2022/11/29 01:27:17;;;;;;;3.10;2.80;;;;;;;;;;5034975;28;20337;-85
2022/11/29 01:29:44;;;;;;;3.03;2.83;;;;;;;;;;5035166;28;20240;-84
2022/11/29 01:32:12;;;;;;;2.88;2.67;;;;;;;;;;5035229;28;20301;-86
2022/11/29 01:34:40;;;;;;;2.85;2.65;;;;;;;;;;5034664;28;20199;-86
2022/11/29 01:37:07;;;;;;;3.20;2.83;;;;;;;;;;5035450;28;20313;-84
2022/11/29 01:39:35;;;;;;;3.10;2.90;;;;;;;;;;5035487;28;20345;-83
2022/11/29 01:42:04;;;;;;;3.95;3.65;;;;;;;;;;5035322;28;20262;-86
2022/11/29 01:45:07;;;;;;;3.03;2.83;;;;;;;;;;5035065;28;20317;-84
2022/11/29 01:47:40;;;;;;;5.00;4.60;;;;;;;;;;5034826;28;20226;-84
2022/11/29 01:50:09;;;;;;;5.18;4.68;;;;;;;;;;5034824;28;20620;-86
2022/11/29 01:52:37;;;;;;;3.75;3.45;;;;;;;;;;5034800;28;20762;-84
2022/11/29 01:55:07;;;;;;;4.70;4.28;;;;;;;;;;5034700;28;20228;-86
2022/11/29 01:57:38;;;;;;;3.83;3.53;;;;;;;;;;5034826;28;20590;-85
2022/11/29 02:00:10;;;;;;;4.50;4.10;;;;;;;;;;5034786;28;20269;-86
2022/11/29 02:02:42;;;;;;;3.90;3.60;;;;;;;;;;5034739;28;20566;-84
2022/11/29 02:05:11;;;;;;;4.22;3.90;;;;;;;;;;5034697;28;20206;-85
2022/11/29 02:07:39;;;;;;;4.95;4.50;;;;;;;;;;5034440;28;20229;-87
2022/11/29 02:10:08;;;;;;;5.80;5.25;;;;;;;;;;5034194;28;20202;-85
2022/11/29 02:12:49;;;;;;;4.38;3.97;;;;;;;;;;5034272;28;20289;-85
2022/11/29 02:15:29;;;;;;;4.10;3.78;;;;;;;;;;5034719;28;20277;-86
2022/11/29 02:18:06;;;;;;;3.20;2.97;;;;;;;;;;5034728;28;20257;-85
2022/11/29 02:21:07;;;;;;;3.67;3.30;;;;;;;;;;5034403;28;20265;-84
2022/11/29 02:24:15;;;;;;;3.20;2.90;;;;;;;;;;5034185;28;20276;-87
2022/11/29 02:27:16;;;;;;;4.47;4.07;;;;;;;;;;5005550;28;20289;-85
2022/11/29 02:30:25;;;;;;;3.60;3.30;;;;;;;;;;5028869;28;20655;-83
2022/11/29 02:33:22;;;;;;;3.70;3.40;;;;;;;;;;5034110;28;20269;-85
2022/11/29 02:36:16;;;;;;;2.67;2.47;;;;;;;;;;5025170;28;20306;-85
2022/11/29 02:39:10;;;;;;;3.65;3.35;;;;;;;;;;5033671;28;20642;-84
2022/11/29 02:41:58;;;;;;;3.85;3.55;;;;;;;;;;5034018;28;20179;-86
2022/11/29 02:44:58;;;;;;;4.68;4.28;;;;;;;;;;5033818;28;20218;-83
2022/11/29 02:47:32;;;;;;;4.57;4.18;;;;;;;;;;5032461;28;20252;-84
2022/11/29 02:50:20;;;;;;;3.60;3.30;;;;;;;;;;5034090;28;20196;-84
2022/11/29 02:53:00;;;;;;;3.40;3.10;;;;;;;;;;5034337;28;20273;-85
2022/11/29 02:55:34;;;;;;;3.95;3.60;;;;;;;;;;5034155;28;20182;-83
2022/11/29 02:58:13;;;;;;;3.28;3.08;;;;;;;;;;5034305;28;20222;-85
2022/11/29 03:00:50;;;;;;;3.58;3.28;;;;;;;;;;5033915;28;20222;-83
2022/11/29 03:03:23;;;;;;;3.88;3.50;;;;;;;;;;5034224;28;20222;-83
2022/11/29 03:05:57;;;;;;;3.30;3.10;;;;;;;;;;5034216;28;20202;-83
2022/11/29 03:08:34;;;;;;;3.83;3.53;;;;;;;;;;5033787;28;20233;-83
2022/11/29 03:11:07;;;;;;;3.25;3.00;;;;;;;;;;5034404;28;20190;-86
2022/11/29 03:13:48;;;;;;;3.78;3.35;;;;;;;;;;5033697;28;20285;-85
2022/11/29 03:16:28;;;;;;;3.75;3.45;;;;;;;;;;5034000;28;20657;-84
2022/11/29 03:19:05;;;;;;;2.88;2.67;;;;;;;;;;5033930;28;20249;-84
2022/11/29 03:21:45;;;;;;;2.63;2.42;;;;;;;;;;5033942;28;20285;-86
2022/11/29 03:24:18;;;;;;;2.80;2.60;;;;;;;;;;5034274;28;20882;-85
2022/11/29 03:26:51;;;;;;;2.60;2.40;;;;;;;;;;5034100;28;20613;-84
2022/11/29 03:29:27;;;;;;;2.05;1.90;;;;;;;;;;5034365;28;20643;-84
2022/11/29 03:32:02;;;;;;;2.60;2.40;;;;;;;;;;5033547;28;20297;-84
2022/11/29 03:34:42;;;;;;;2.30;2.10;;;;;;;;;;5033899;28;20273;-86
2022/11/29 03:37:16;;;;;;;2.22;2.10;;;;;;;;;;5035172;28;20304;-85
2022/11/29 03:39:51;;;;;;;2.80;2.60;;;;;;;;;;5037973;28;20329;-84
2022/11/29 03:42:24;;;;;;;2.13;2.03;;;;;;;;;;5037348;28;20265;-84
2022/11/29 03:44:58;;;;;;;3.33;3.13;;;;;;;;;;5037683;28;20598;-84
2022/11/29 03:47:31;;;;;;;3.08;2.88;;;;;;;;;;5037463;28;20591;-85
2022/11/29 03:50:04;;;;;;;2.83;2.63;;;;;;;;;;5037496;28;20182;-85
2022/11/29 03:52:38;;;;;;;2.67;2.47;;;;;;;;;;5038044;28;20696;-83
2022/11/29 03:55:25;;;;;;;2.72;2.53;;;;;;;;;;5037777;28;20273;-86
2022/11/29 03:58:23;;;;;;;2.53;2.33;;;;;;;;;;5037055;28;20222;-83
2022/11/29 04:01:31;;;;;;;2.03;1.92;;;;;;;;;;5037578;28;20674;-84
2022/11/29 04:04:31;;;;;;;2.17;2.03;;;;;;;;;;5037681;28;20272;-83
2022/11/29 04:07:11;;;;;;;1.90;1.80;;;;;;;;;;5014733;28;20758;-84
2022/11/29 04:09:57;;;;;;;1.90;1.80;;;;;;;;;;5037395;28;20201;-82
2022/11/29 04:12:58;;;;;;;2.40;2.25;;;;;;;;;;5038081;28;20282;-85
2022/11/29 04:16:19;;;;;;;3.10;2.85;;;;;;;;;;5037526;28;20268;-85
2022/11/29 04:19:16;;;;;;;2.50;2.30;;;;;;;;;;5029450;28;20679;-83
2022/11/29 04:22:10;;;;;;;2.47;2.28;;;;;;;;;;5037375;28;20266;-84
2022/11/29 04:25:08;;;;;;;2.80;2.60;;;;;;;;;;5037488;28;20197;-83
2022/11/29 04:27:47;;;;;;;2.97;2.78;;;;;;;;;;5036744;28;20260;-86
2022/11/29 04:30:19;;;;;;;2.05;1.90;;;;;;;;;;5037036;28;20631;-83
2022/11/29 04:33:42;;;;;;;2.35;2.15;;;;;;;;;;5036632;28;20274;-85
2022/11/29 04:36:38;;;;;;;1.90;1.80;;;;;;;;;;4956081;29;20272;-83
2022/11/29 04:39:32;;;;;;;2.03;1.92;;;;;;;;;;5036285;28;20313;-85
2022/11/29 04:42:55;;;;;;;1.65;1.55;;;;;;;;;;5035015;28;20289;-85
2022/11/29 04:46:13;;;;;;;2.25;2.13;;;;;;;;;;5037355;28;20630;-84
2022/11/29 04:49:17;;;;;;;1.83;1.73;;;;;;;;;;5035487;28;20310;-86
2022/11/29 04:52:06;;;;;;;2.65;2.45;;;;;;;;;;5031231;28;20206;-86
2022/11/29 04:54:39;;;;;;;2.40;2.20;;;;;;;;;;5036498;28;20717;-86
2022/11/29 04:57:11;;;;;;;2.33;2.13;;;;;;;;;;5036513;28;20187;-85
2022/11/29 04:59:46;;;;;;;2.40;2.20;;;;;;;;;;5036433;28;20258;-85
2022/11/29 05:02:24;;;;;;;2.20;2.10;;;;;;;;;;5036226;28;20264;-83
2022/11/29 05:04:56;;;;;;;2.10;1.90;;;;;;;;;;5036675;28;20646;-85
2022/11/29 05:07:33;;;;;;;2.47;2.28;;;;;;;;;;5036184;28;20236;-84
2022/11/29 05:10:14;;;;;;;2.53;2.33;;;;;;;;;;5036469;28;20631;-85
2022/11/29 05:12:48;;;;;;;2.38;2.17;;;;;;;;;;5036092;28;20260;-85
2022/11/29 05:16:00;;;;;;;2.63;2.42;;;;;;;;;;5036401;28;20631;-85
2022/11/29 05:18:45;;;;;;;2.50;2.30;;;;;;;;;;5037454;28;20218;-86
2022/11/29 05:21:19;;;;;;;2.45;2.30;;;;;;;;;;5035971;28;20273;-83
2022/11/29 05:23:58;;;;;;;2.63;2.42;;;;;;;;;;5036240;28;20277;-83
2022/11/29 05:26:31;;;;;;;2.30;2.10;;;;;;;;;;5036280;28;20248;-87
2022/11/29 05:29:04;;;;;;;2.28;2.08;;;;;;;;;;5036033;28;20302;-85
2022/11/29 05:31:52;;;;;;;2.35;2.15;;;;;;;;;;5035957;28;20300;-86
2022/11/29 05:34:41;;;;;;;2.15;2.05;;;;;;;;;;5035828;28;20273;-86
2022/11/29 05:37:22;;;;;;;2.03;1.92;;;;;;;;;;5036226;28;20711;-86
2022/11/29 05:40:04;;;;;;;2.10;2.00;;;;;;;;;;5036371;28;20268;-86
2022/11/29 05:42:52;;;;;;;2.38;2.17;;;;;;;;;;5036101;28;20273;-86
2022/11/29 05:45:26;;;;;;;2.33;2.20;;;;;;;;;;5035724;28;20255;-85
2022/11/29 05:47:59;;;;;;;2.70;2.50;;;;;;;;;;5034946;28;20280;-83
2022/11/29 05:50:33;;;;;;;4.10;3.35;;;;;;;;;;5035051;28;20274;-83
2022/11/29 05:53:15;;;;;;;4.13;3.72;;;;;;;;;;5036530;28;20277;-84
2022/11/29 05:55:48;;;;;;;3.60;3.33;;;;;;;;;;5018798;28;20544;-84
2022/11/29 05:58:23;;;;;;;3.42;3.13;;;;;;;;;;5034961;28;20254;-84
2022/11/29 06:00:59;;;;;;;3.75;3.28;;;;;;;;;;5034831;28;20249;-83
2022/11/29 06:03:33;;;;;;;3.20;2.90;;;;;;;;;;5035273;28;20646;-83
2022/11/29 06:06:06;;;;;;;2.92;2.72;;;;;;;;;;5035358;28;20254;-83
2022/11/29 06:08:39;;;;;;;2.58;2.38;;;;;;;;;;5035618;28;20637;-83
2022/11/29 06:11:15;;;;;;;2.20;2.10;;;;;;;;;;5035222;28;20277;-83
2022/11/29 06:13:57;;;;;;;2.97;2.67;;;;;;;;;;5035136;28;20190;-85
2022/11/29 06:16:50;;;;;;;2.60;2.40;;;;;;;;;;5035304;28;20281;-84
2022/11/29 06:19:45;;;;;;;2.55;2.35;;;;;;;;;;5035023;28;20187;-84
2022/11/29 06:22:31;;;;;;;2.63;2.42;;;;;;;;;;5034747;28;20273;-84
2022/11/29 06:25:17;;;;;;;2.40;2.20;;;;;;;;;;5034834;28;20193;-85
2022/11/29 06:28:09;;;;;;;2.40;2.20;;;;;;;;;;5034425;28;20232;-87
2022/11/29 06:30:48;;;;;;;2.75;2.55;;;;;;;;;;5034012;28;20300;-83
2022/11/29 06:33:21;;;;;;;2.50;2.30;;;;;;;;;;5034351;28;20191;-85
2022/11/29 06:35:55;;;;;;;2.30;2.13;;;;;;;;;;5034469;28;20202;-84
2022/11/29 06:38:26;;;;;;;2.30;2.20;;;;;;;;;;5034071;28;20228;-84
2022/11/29 06:40:54;;;;;;;2.22;2.03;;;;;;;;;;5034320;28;20190;-86
2022/11/29 06:43:24;;;;;;;1.95;1.85;;;;;;;;;;5033620;28;20611;-85
2022/11/29 06:45:56;;;;;;;2.65;2.45;;;;;;;;;;5033738;28;20187;-86
2022/11/29 06:48:26;;;;;;;2.50;2.30;;;;;;;;;;5033282;28;20254;-87
2022/11/29 06:51:03;;;;;;;2.60;2.40;;;;;;;;;;5034215;28;20262;-84
2022/11/29 06:53:38;;;;;;;2.00;1.90;;;;;;;;;;5034064;28;20289;-84
2022/11/29 06:56:16;;;;;;;2.75;2.55;;;;;;;;;;5033856;28;20255;-86
2022/11/29 06:58:55;;;;;;;3.15;2.90;;;;;;;;;;5034008;28;20583;-86
2022/11/29 07:01:29;;;;;;;2.40;2.20;;;;;;;;;;5033335;28;20196;-86
2022/11/29 07:04:12;;;;;;;3.45;3.15;;;;;;;;;;5033423;28;20290;-86
2022/11/29 07:06:42;;;;;;;3.85;3.55;;;;;;;;;;5033541;28;20277;-85
2022/11/29 07:09:16;;;;;;;3.50;3.20;;;;;;;;;;5033476;28;20229;-85
2022/11/29 07:11:45;;;;;;;4.43;3.90;;;;;;;;;;5034713;28;20268;-85
2022/11/29 07:14:14;;;;;;;3.65;3.30;;;;;;;;;;5035384;28;20286;-86
2022/11/29 07:16:50;;;;;;;2.70;2.50;;;;;;;;;;5034774;28;20663;-87
2022/11/29 07:19:23;;;;;;;4.32;3.92;;;;;;;;;;5033289;28;20225;-85
2022/11/29 07:22:02;;;;;;;3.28;2.97;;;;;;;;;;5035160;28;20240;-88
2022/11/29 07:24:46;;;;;;;3.88;3.50;;;;;;;;;;5033063;28;20206;-86
2022/11/29 07:27:20;;;;;;;2.40;2.20;;;;;;;;;;5033503;28;20367;-85
2022/11/29 07:30:06;;;;;;;3.20;2.80;;;;;;;;;;5033505;28;20217;-83
2022/11/29 07:32:46;;;;;;;2.85;2.65;;;;;;;;;;5034801;28;20309;-86
2022/11/29 07:35:18;;;;;;;3.15;2.92;;;;;;;;;;5035458;28;20249;-85
2022/11/29 07:38:03;;;;;;;3.92;3.63;;;;;;;;;;5034162;28;20253;-83
2022/11/29 07:40:35;;;;;;;6.43;4.53;;;;;;;;;;5033589;28;20241;-86
2022/11/29 07:43:19;;;;;;;4.97;4.57;;;;;;;;;;5033548;28;20317;-85
2022/11/29 07:45:47;;;;;;;3.10;2.90;;;;;;;;;;5034104;28;20190;-84
2022/11/29 07:48:15;;;;;;;3.42;3.13;;;;;;;;;;5032952;28;20236;-84
2022/11/29 07:50:42;;;;;;;4.22;3.55;;;;;;;;;;5032698;28;20225;-84
2022/11/29 07:53:15;;;;;;;2.88;2.67;;;;;;;;;;5032579;28;20341;-85
2022/11/29 07:55:43;;;;;;;2.80;2.60;;;;;;;;;;5032762;28;20762;-85
2022/11/29 07:58:12;;;;;;;5.18;4.68;;;;;;;;;;5032653;28;20368;-83
2022/11/29 08:00:40;;;;;;;4.13;3.70;;;;;;;;;;5032462;28;20202;-84
2022/11/29 08:03:08;;;;;;;3.20;2.97;;;;;;;;;;5032169;28;20660;-85
2022/11/29 08:05:36;;;;;;;3.92;3.53;;;;;;;;;;5032676;28;20720;-85
2022/11/29 08:08:04;;;;;;;4.05;3.63;;;;;;;;;;5032539;28;20357;-84
2022/11/29 08:10:34;;;;;;;3.10;2.80;;;;;;;;;;5032274;28;20293;-84
2022/11/29 08:13:01;;;;;;;3.15;2.92;;;;;;;;;;5032287;28;20272;-84
2022/11/29 08:15:29;;;;;;;3.60;3.15;;;;;;;;;;5032326;28;20644;-85
2022/11/29 08:17:57;;;;;;;4.18;3.88;;;;;;;;;;5032266;28;20645;-84
2022/11/29 08:20:24;;;;;;;5.15;4.65;;;;;;;;;;5032502;28;20289;-87
2022/11/29 08:22:57;;;;;;;2.75;2.55;;;;;;;;;;5032220;28;20286;-86
2022/11/29 08:25:26;;;;;;;4.57;4.18;;;;;;;;;;5035565;28;20190;-85
2022/11/29 08:27:56;;;;;;;3.58;3.28;;;;;;;;;;5035741;28;20227;-85
2022/11/29 08:30:23;;;;;;;5.68;5.05;;;;;;;;;;5035349;28;20222;-85
2022/11/29 08:32:52;;;;;;;5.65;5.00;;;;;;;;;;5035991;28;20265;-86
2022/11/29 08:35:21;;;;;;;4.82;3.88;;;;;;;;;;5035954;28;20297;-85
2022/11/29 08:37:49;;;;;;;4.43;3.92;;;;;;;;;;5035846;28;20218;-87
2022/11/29 08:40:17;;;;;;;3.70;3.40;;;;;;;;;;5036300;28;20209;-86
2022/11/29 08:42:45;;;;;;;5.50;4.97;;;;;;;;;;5036401;28;20281;-86
2022/11/29 08:45:14;;;;;;;4.28;3.88;;;;;;;;;;5035669;28;20245;-86
2022/11/29 08:47:41;;;;;;;5.55;4.35;;;;;;;;;;5035166;28;20315;-86
2022/11/29 08:50:13;;;;;;;3.50;3.20;;;;;;;;;;5036233;28;20209;-85
2022/11/29 08:55:33;;;;;;;3.58;3.28;;;;;;;;;;5036528;28;20194;-88
2022/11/29 08:58:06;;;;;;;3.60;3.30;;;;;;;;;;5036257;28;20302;-85
2022/11/29 09:00:35;;;;;;;4.32;3.92;;;;;;;;;;5036126;28;20667;-86
2022/11/29 09:05:48;;;;;;;4.15;3.80;;;;;;;;;;4995336;28;20194;-86
2022/11/29 09:08:16;;;;;;;2.85;2.65;;;;;;;;;;5033620;28;20226;-86
2022/11/29 09:10:44;;;;;;;4.93;4.00;;;;;;;;;;5033809;28;20293;-86
2022/11/29 09:13:12;;;;;;;4.68;4.03;;;;;;;;;;5034406;28;20612;-85
2022/11/29 09:15:42;;;;;;;5.78;4.65;;;;;;;;;;5035173;28;20256;-86
2022/11/29 09:18:10;;;;;;;6.05;5.38;;;;;;;;;;5035692;28;20225;-86
2022/11/29 09:20:37;;;;;;;4.25;3.85;;;;;;;;;;5035013;28;20682;-84
2022/11/29 09:23:05;;;;;;;4.53;4.10;;;;;;;;;;5035026;28;20238;-84
2022/11/29 09:25:33;;;;;;;6.00;4.63;;;;;;;;;;5035024;28;20274;-85
2022/11/29 09:28:01;;;;;;;8.52;5.50;;;;;;;;;;5034437;28;20313;-83
2022/11/29 09:30:30;;;;;;;6.85;4.63;;;;;;;;;;5034722;28;20185;-84
2022/11/29 09:33:01;;;;;;;7.22;5.28;;;;;;;;;;5035113;28;20190;-84
2022/11/29 09:35:29;;;;;;;6.38;4.93;;;;;;;;;;5035008;28;20596;-83
2022/11/29 09:37:56;;;;;;;7.72;6.05;;;;;;;;;;5034464;28;20218;-84
2022/11/29 09:40:31;;;;;;;7.60;5.35;;;;;;;;;;5034629;28;20212;-84
2022/11/29 09:43:02;;;;;;;4.60;4.20;;;;;;;;;;5033745;28;20186;-85
2022/11/29 09:45:35;;;;;;;6.47;4.68;;;;;;;;;;5034452;28;20281;-85
2022/11/29 09:48:34;;;;;;;7.25;5.30;;;;;;;;;;5033986;28;20227;-86
2022/11/29 09:51:16;;;;;;;8.75;5.22;;;;;;;;;;5034057;28;20193;-83
2022/11/29 09:54:12;;;;;;;6.35;5.25;;;;;;;;;;5034087;28;20273;-83
2022/11/29 09:56:43;;;;;;;9.13;6.15;;;;;;;;;;5034134;28;20315;-83
2022/11/29 09:59:14;;;;;;;5.97;4.53;;;;;;;;;;5033878;28;20312;-85
2022/11/29 10:01:46;;;;;;;7.13;5.32;;;;;;;;;;5034176;28;20604;-84
2022/11/29 10:04:18;;;;;;;8.60;6.25;;;;;;;;;;5033145;28;20277;-85
2022/11/29 10:06:54;;;;;;;5.90;5.32;;;;;;;;;;5034496;28;20561;-83
2022/11/29 10:09:25;;;;;;;6.38;5.72;;;;;;;;;;5036277;28;20336;-83
2022/11/29 10:12:04;;;;;;;7.78;6.28;;;;;;;;;;5037319;28;20192;-84
2022/11/29 10:14:36;;;;;;;6.30;4.95;;;;;;;;;;5037178;28;20190;-85
2022/11/29 10:17:22;;;;;;;6.68;5.97;;;;;;;;;;5037311;28;20183;-85
2022/11/29 10:19:54;;;;;;;8.07;5.57;;;;;;;;;;5037475;28;20225;-84
2022/11/29 10:22:27;;;;;;;5.95;5.32;;;;;;;;;;5037995;28;20229;-85
2022/11/29 10:24:59;;;;;;;9.15;6.32;;;;;;;;;;5037332;28;20226;-87
2022/11/29 10:27:28;;;;;;;8.93;6.28;;;;;;;;;;5037699;28;20264;-85
2022/11/29 10:29:58;;;;;;;7.82;5.38;;;;;;;;;;5038055;28;20293;-85
2022/11/29 10:32:29;;;;;;;6.78;5.35;;;;;;;;;;5038011;28;20301;-83
2022/11/29 10:34:59;;;;;;;10.10;6.95;;;;;;;;;;5038458;28;20202;-84
2022/11/29 10:37:31;;;;;;;7.00;6.30;;;;;;;;;;5046340;28;20286;-85
2022/11/29 10:40:03;;;;;;;10.52;7.18;;;;;;;;;;5046170;28;20249;-85
2022/11/29 10:42:51;;;;;;;6.43;5.80;;;;;;;;;;5047179;28;20187;-85
2022/11/29 10:45:28;;;;;;;9.82;6.50;;;;;;;;;;5046814;28;20632;-84
2022/11/29 10:48:03;;;;;;;7.15;6.45;;;;;;;;;;5040615;28;20246;-85
2022/11/29 10:50:35;;;;;;;7.10;6.20;;;;;;;;;;5045630;28;20222;-86
2022/11/29 10:53:08;;;;;;;11.48;7.05;;;;;;;;;;5045241;28;20202;-83
2022/11/29 10:55:42;;;;;;;13.70;9.57;;;;;;;;;;5045951;28;20230;-86
2022/11/29 10:58:23;;;;;;;14.70;10.45;;;;;;;;;;5045332;28;20275;-87
2022/11/29 11:00:56;;;;;;;17.90;9.52;;;;;;;;;;5044328;28;20270;-84
2022/11/29 11:03:38;;;;;;;17.02;14.68;;;;;;;;;;5044337;28;20182;-86
2022/11/29 11:06:11;;;;;;;18.40;16.25;;;;;;;;;;5043829;28;20201;-84
2022/11/29 11:08:42;;;;;;;12.32;10.57;;;;;;;;;;5045854;28;20241;-85
2022/11/29 11:11:10;;;;;;;10.73;8.57;;;;;;;;;;5046709;28;20260;-85
2022/11/29 11:13:40;;;;;;;13.77;9.77;;;;;;;;;;5046194;28;20206;-86
2022/11/29 11:16:17;;;;;;;11.40;8.45;;;;;;;;;;5047577;28;20266;-86
2022/11/29 11:18:46;;;;;;;11.10;6.60;;;;;;;;;;5045962;28;20230;-86
2022/11/29 11:21:17;;;;;;;11.05;7.78;;;;;;;;;;5045410;28;20202;-87
2022/11/29 11:23:56;;;;;;;12.85;8.23;;;;;;;;;;5046729;28;20190;-85
2022/11/29 11:26:24;;;;;;;16.88;9.38;;;;;;;;;;5047153;28;20270;-86
2022/11/29 11:28:57;;;;;;;19.02;10.95;;;;;;;;;;5048599;28;20269;-86
2022/11/29 11:31:32;;;;;;;18.08;10.95;;;;;;;;;;5048610;28;20233;-86
2022/11/29 11:34:32;;;;;;;18.35;10.43;;;;;;;;;;5047668;28;20198;-86
2022/11/29 11:37:25;;;;;;;13.68;8.60;;;;;;;;;;5047426;28;20198;-85
2022/11/29 11:39:55;;;;;;;13.30;8.93;;;;;;;;;;5031578;28;20190;-86
2022/11/29 11:42:39;;;;;;;11.32;6.88;;;;;;;;;;5026354;28;20230;-86
2022/11/29 11:45:32;;;;;;;11.25;6.85;;;;;;;;;;5026161;28;20270;-86
2022/11/29 11:48:04;;;;;;;10.38;7.13;;;;;;;;;;5032067;28;20226;-86
2022/11/29 11:50:34;;;;;;;8.73;6.72;;;;;;;;;;5026362;28;20253;-86
2022/11/29 11:53:08;;;;;;;11.80;8.38;;;;;;;;;;5025799;28;20199;-86
2022/11/29 11:55:39;;;;;;;8.32;6.30;;;;;;;;;;5025385;28;20652;-85
2022/11/29 11:58:17;;;;;;;13.40;8.48;;;;;;;;;;5027677;28;20674;-86
2022/11/29 12:00:49;;;;;;;9.45;6.38;;;;;;;;;;5028370;28;20195;-86
2022/11/29 12:03:43;;;;;;;11.98;6.80;;;;;;;;;;5029486;28;20238;-86
2022/11/29 12:06:43;;;;;;;10.80;7.03;;;;;;;;;;5026695;28;20230;-86
2022/11/29 12:09:33;;;;;;;19.98;9.65;;;;;;;;;;5018144;28;20579;-86
2022/11/29 12:12:14;;;;;;;16.13;10.27;;;;;;;;;;5029258;28;20187;-87
2022/11/29 12:14:53;;;;;;;21.58;12.85;;;;;;;;;;5029078;28;20221;-86
2022/11/29 12:17:31;;;;;;;28.17;14.43;;;;;;;;;;5030485;28;20227;-86
2022/11/29 12:20:15;;;;;;;24.92;12.25;;;;;;;;;;5034970;28;20819;-86
2022/11/29 12:22:51;;;;;;;13.85;9.15;;;;;;;;;;5029939;28;20188;-86
2022/11/29 12:25:24;;;;;;;14.35;9.25;;;;;;;;;;5030069;28;20645;-86
2022/11/29 12:27:52;;;;;;;14.68;8.75;;;;;;;;;;5030059;28;20304;-87
2022/11/29 12:30:20;;;;;;;16.48;8.43;;;;;;;;;;5029270;28;20222;-86
2022/11/29 12:33:05;;;;;;;13.90;8.98;;;;;;;;;;5029664;28;20624;-86
2022/11/29 12:35:51;;;;;;;12.25;7.35;;;;;;;;;;5029496;28;20226;-86
2022/11/29 12:38:33;;;;;;;11.13;8.65;;;;;;;;;;5028976;28;20226;-86
2022/11/29 12:41:13;;;;;;;11.68;7.55;;;;;;;;;;5029762;28;20199;-86
2022/11/29 12:43:53;;;;;;;14.32;9.80;;;;;;;;;;5029325;28;20214;-87
2022/11/29 12:46:24;;;;;;;15.80;9.10;;;;;;;;;;5030263;28;20210;-87
2022/11/29 12:49:00;;;;;;;12.07;8.38;;;;;;;;;;5035033;28;20286;-87
2022/11/29 12:51:39;;;;;;;17.15;11.20;;;;;;;;;;5049338;28;20580;-85
2022/11/29 12:54:40;;;;;;;13.98;10.07;;;;;;;;;;5049101;28;20199;-87
2022/11/29 12:57:17;;;;;;;10.48;6.72;;;;;;;;;;5040683;28;20225;-86
2022/11/29 13:00:06;;;;;;;10.40;7.03;;;;;;;;;;5048941;28;20225;-85
2022/11/29 13:02:49;;;;;;;11.85;7.00;;;;;;;;;;5048874;28;20202;-86
2022/11/29 13:05:36;;;;;;;9.35;6.57;;;;;;;;;;5049200;28;20252;-85
2022/11/29 13:08:21;;;;;;;9.15;5.80;;;;;;;;;;5048831;28;20246;-86
2022/11/29 13:11:04;;;;;;;8.82;5.40;;;;;;;;;;5048739;28;20646;-86
2022/11/29 13:13:39;;;;;;;6.88;5.18;;;;;;;;;;5049571;28;20727;-85
2022/11/29 13:16:14;;;;;;;6.10;4.97;;;;;;;;;;5049625;28;20221;-86
2022/11/29 13:18:49;;;;;;;6.43;4.75;;;;;;;;;;5041307;28;20229;-85
2022/11/29 13:21:20;;;;;;;6.35;4.78;;;;;;;;;;5049819;28;20182;-84
2022/11/29 13:23:54;;;;;;;5.28;4.13;;;;;;;;;;5049313;28;20193;-86
2022/11/29 13:26:22;;;;;;;6.47;5.05;;;;;;;;;;5049792;28;20212;-86
2022/11/29 13:28:52;;;;;;;5.10;4.32;;;;;;;;;;5047182;28;20594;-86
2022/11/29 13:31:22;;;;;;;7.28;4.78;;;;;;;;;;5047343;28;20289;-87
2022/11/29 13:33:58;;;;;;;5.05;4.30;;;;;;;;;;5046866;28;20202;-88
2022/11/29 13:36:34;;;;;;;5.70;4.50;;;;;;;;;;5044108;28;20241;-86
2022/11/29 13:39:14;;;;;;;5.70;4.30;;;;;;;;;;5036736;28;20709;-86
2022/11/29 13:41:47;;;;;;;6.68;5.55;;;;;;;;;;5045603;28;20182;-85
2022/11/29 13:44:24;;;;;;;4.47;3.22;;;;;;;;;;5045749;28;20190;-87
2022/11/29 13:47:02;;;;;;;6.57;4.22;;;;;;;;;;5045471;28;20236;-86
2022/11/29 13:49:55;;;;;;;8.93;5.82;;;;;;;;;;5045789;28;20198;-86
2022/11/29 13:52:45;;;;;;;4.90;3.33;;;;;;;;;;5055852;28;20229;-85
2022/11/29 13:58:09;;;;;;;4.10;3.70;;;;;;;;;;5067632;28;20221;-85
2022/11/29 14:00:51;;;;;;;4.15;3.75;;;;;;;;;;5065994;28;20650;-86
2022/11/29 14:03:30;;;;;;;6.63;5.30;;;;;;;;;;5066320;28;20205;-86
2022/11/29 14:06:12;;;;;;;10.38;7.15;;;;;;;;;;5065818;28;20215;-86
2022/11/29 14:08:45;;;;;;;29.23;13.13;;;;;;;;;;5066844;28;20308;-85
2022/11/29 14:11:22;;;;;;;26.70;12.55;;;;;;;;;;5066762;28;20310;-87
2022/11/29 14:13:54;;;;;;;13.68;8.18;;;;;;;;;;5066293;28;20620;-86
2022/11/29 14:16:31;;;;;;;8.63;6.22;;;;;;;;;;5065313;28;20218;-85
2022/11/29 14:19:25;;;;;;;8.40;5.55;;;;;;;;;;5049914;28;20293;-86
2022/11/29 14:22:32;;;;;;;5.82;4.60;;;;;;;;;;5041425;28;20252;-86
2022/11/29 14:25:22;;;;;;;9.10;6.32;;;;;;;;;;5045311;28;20305;-85
2022/11/29 14:28:01;;;;;;;9.30;6.72;;;;;;;;;;5044416;28;20249;-86
2022/11/29 14:30:50;;;;;;;9.68;6.72;;;;;;;;;;5043645;28;20186;-87
2022/11/29 14:33:29;;;;;;;10.57;7.05;;;;;;;;;;5045749;28;20237;-87
2022/11/29 14:36:25;;;;;;;15.85;11.02;;;;;;;;;;5043613;28;20209;-86
2022/11/29 14:39:02;;;;;;;9.40;7.40;;;;;;;;;;5034807;28;20230;-88
2022/11/29 14:41:53;;;;;;;11.63;8.07;;;;;;;;;;5040502;28;20205;-86
2022/11/29 14:44:26;;;;;;;10.25;7.15;;;;;;;;;;5044686;28;20201;-87
2022/11/29 14:47:02;;;;;;;9.93;6.07;;;;;;;;;;5042151;28;20221;-87
2022/11/29 14:49:32;;;;;;;10.88;6.50;;;;;;;;;;5031682;28;20230;-86
2022/11/29 14:52:20;;;;;;;7.80;6.05;;;;;;;;;;5022445;28;20625;-87
2022/11/29 14:55:01;;;;;;;6.10;4.95;;;;;;;;;;5021559;28;20187;-86
2022/11/29 14:58:13;;;;;;;7.45;5.53;;;;;;;;;;5021501;28;20715;-87
2022/11/29 15:01:04;;;;;;;8.68;6.53;;;;;;;;;;5021230;28;20346;-87
2022/11/29 15:03:36;;;;;;;9.90;6.80;;;;;;;;;;5021276;28;20233;-87
2022/11/29 15:06:23;;;;;;;9.82;7.05;;;;;;;;;;5019815;28;20195;-87
2022/11/29 15:08:59;;;;;;;10.60;7.18;;;;;;;;;;5019766;28;20573;-87
2022/11/29 15:11:48;;;;;;;9.00;6.82;;;;;;;;;;5020615;28;20268;-88
2022/11/29 15:14:24;;;;;;;9.25;6.93;;;;;;;;;;5021957;28;20243;-87
2022/11/29 15:17:08;;;;;;;10.07;6.82;;;;;;;;;;5022498;28;20561;-87
2022/11/29 15:20:02;;;;;;;8.45;6.18;;;;;;;;;;5027733;28;20568;-87
2022/11/29 15:22:46;;;;;;;9.68;7.18;;;;;;;;;;5018586;28;20222;-87
2022/11/29 15:25:20;;;;;;;8.52;7.05;;;;;;;;;;5022597;28;20183;-87
2022/11/29 15:27:53;;;;;;;9.68;6.95;;;;;;;;;;5019312;28;20639;-86
2022/11/29 15:30:30;;;;;;;7.50;6.13;;;;;;;;;;5021493;28;20621;-87
2022/11/29 15:32:58;;;;;;;9.05;7.00;;;;;;;;;;5023367;28;20250;-86
2022/11/29 15:35:27;;;;;;;9.48;6.60;;;;;;;;;;5026125;28;20188;-87
2022/11/29 15:37:57;;;;;;;8.70;6.13;;;;;;;;;;5025682;28;20218;-86
2022/11/29 15:40:31;;;;;;;9.65;7.00;;;;;;;;;;5024945;28;20682;-86
2022/11/29 15:43:11;;;;;;;10.10;6.90;;;;;;;;;;5025543;28;20198;-86
2022/11/29 15:45:40;;;;;;;8.02;5.88;;;;;;;;;;5024209;28;20187;-87
2022/11/29 15:48:19;;;;;;;8.60;5.53;;;;;;;;;;5024755;28;20230;-88